Time;durP1;ratioP1;P1;durP2;ratioP2;P2;SDS_P1;SDS_P2;PMS_P1;PMS_P2;Temp;Humidity;BMP_temperature;BMP_pressure;BME280_temperature;BME280_humidity;BME280_pressure;Samples;Min_cycle;Max_cycle;Signal;HPM_P1;HPM_P2
2022/03/07 00:00:57;;;;;;;8.80;4.30;;;;;;;-0.74;67.53;102687.88;5048385;28;20022;-87
2022/03/07 00:03:24;;;;;;;5.43;3.70;;;;;;;-0.76;66.26;102694.56;5032932;28;20057;-87
2022/03/07 00:05:50;;;;;;;6.70;4.03;;;;;;;-0.78;66.26;102690.25;5032530;28;20056;-87
2022/03/07 00:08:15;;;;;;;6.43;3.85;;;;;;;-0.79;67.88;102691.03;5033002;28;20022;-87
2022/03/07 00:10:40;;;;;;;8.40;4.88;;;;;;;-0.81;68.17;102689.19;5032981;28;20109;-87
2022/03/07 00:13:05;;;;;;;10.05;4.88;;;;;;;-0.84;67.75;102692.44;5043660;28;20134;-87
2022/03/07 00:15:31;;;;;;;8.50;4.50;;;;;;;-0.87;66.62;102676.94;5052754;28;20029;-87
2022/03/07 00:17:56;;;;;;;9.32;4.78;;;;;;;-0.87;69.17;102683.72;5052790;28;20021;-86
2022/03/07 00:20:21;;;;;;;7.13;4.40;;;;;;;-0.90;67.25;102679.28;5053489;28;20025;-87
2022/03/07 00:22:47;;;;;;;7.88;4.45;;;;;;;-0.89;66.44;102682.75;5057488;28;20108;-87
2022/03/07 00:25:12;;;;;;;6.75;4.30;;;;;;;-0.93;67.66;102689.31;5057175;28;20028;-87
2022/03/07 00:27:38;;;;;;;6.63;4.00;;;;;;;-0.93;66.78;102687.63;5056636;28;20043;-88
2022/03/07 00:30:04;;;;;;;6.72;3.90;;;;;;;-0.97;68.13;102690.81;5056942;28;20021;-87
2022/03/07 00:32:30;;;;;;;7.13;4.40;;;;;;;-1.01;69.78;102693.94;5056311;28;20118;-88
2022/03/07 00:34:55;;;;;;;7.60;4.10;;;;;;;-1.02;67.20;102696.41;5056211;28;20033;-88
2022/03/07 00:37:20;;;;;;;7.43;4.15;;;;;;;-1.05;67.14;102702.16;5056326;28;20021;-88
2022/03/07 00:39:45;;;;;;;7.85;4.10;;;;;;;-1.05;66.85;102694.53;5056827;28;20037;-87
2022/03/07 00:42:13;;;;;;;7.28;4.05;;;;;;;-1.06;66.62;102699.53;5056275;28;20424;-88
2022/03/07 00:44:38;;;;;;;6.00;3.75;;;;;;;-1.06;66.72;102697.84;5056392;28;20100;-88
2022/03/07 00:47:07;;;;;;;5.22;3.47;;;;;;;-1.09;67.15;102696.00;5056531;28;20452;-88
2022/03/07 00:49:32;;;;;;;5.93;3.30;;;;;;;-1.11;66.58;102695.03;5055921;28;20057;-88
2022/03/07 00:51:57;;;;;;;5.25;3.22;;;;;;;-1.10;66.39;102704.44;5056898;28;20071;-87
2022/03/07 00:54:26;;;;;;;6.97;3.00;;;;;;;-1.15;66.82;102697.28;5056035;28;20029;-88
2022/03/07 00:56:51;;;;;;;5.40;3.15;;;;;;;-1.16;67.55;102696.41;5056228;28;20035;-87
2022/03/07 00:59:16;;;;;;;5.13;3.40;;;;;;;-1.21;66.51;102690.13;5046686;28;20386;-87
2022/03/07 01:01:42;;;;;;;5.03;3.13;;;;;;;-1.20;66.53;102693.59;5036560;28;20056;-88
2022/03/07 01:04:07;;;;;;;5.47;3.10;;;;;;;-1.21;66.92;102697.78;5036292;28;20033;-88
2022/03/07 01:06:35;;;;;;;3.88;2.90;;;;;;;-1.25;67.12;102696.72;5036312;28;20377;-88
2022/03/07 01:09:00;;;;;;;5.30;3.20;;;;;;;-1.25;66.59;102700.94;5043717;28;20036;-88
2022/03/07 01:11:29;;;;;;;4.10;3.03;;;;;;;-1.26;68.72;102702.59;5058519;28;20025;-88
2022/03/07 01:13:54;;;;;;;6.15;3.40;;;;;;;-1.27;67.02;102708.47;5058278;28;20041;-88
2022/03/07 01:16:19;;;;;;;5.13;3.25;;;;;;;-1.30;69.00;102704.84;5055303;28;20029;-88
2022/03/07 01:18:45;;;;;;;6.32;3.22;;;;;;;-1.31;68.04;102706.53;5036964;28;20466;-89
2022/03/07 01:21:12;;;;;;;4.75;3.10;;;;;;;-1.32;67.40;102707.31;5037305;28;20036;-88
2022/03/07 01:23:37;;;;;;;4.43;3.10;;;;;;;-1.35;67.11;102698.59;5037315;28;20049;-88
2022/03/07 01:26:03;;;;;;;4.07;2.95;;;;;;;-1.35;66.70;102701.16;5036350;28;20041;-89
2022/03/07 01:28:28;;;;;;;4.85;3.30;;;;;;;-1.37;67.13;102701.03;5039092;28;20016;-88
2022/03/07 01:30:53;;;;;;;5.85;3.30;;;;;;;-1.42;66.97;102698.19;5055869;28;20085;-88
2022/03/07 01:33:19;;;;;;;4.57;3.40;;;;;;;-1.43;67.21;102698.09;5056138;28;20029;-88
2022/03/07 01:35:44;;;;;;;5.57;3.08;;;;;;;-1.47;67.10;102691.94;5056112;28;20021;-88
2022/03/07 01:38:09;;;;;;;4.90;3.15;;;;;;;-1.46;67.04;102695.34;5045987;28;20025;-88
2022/03/07 01:40:34;;;;;;;5.30;3.25;;;;;;;-1.48;67.05;102695.25;5035506;28;20036;-88
2022/03/07 01:43:00;;;;;;;5.43;3.28;;;;;;;-1.50;67.10;102691.72;5035970;28;20428;-88
2022/03/07 01:45:25;;;;;;;5.97;3.30;;;;;;;-1.50;67.18;102694.28;5035057;28;20030;-88
2022/03/07 01:47:50;;;;;;;5.15;3.30;;;;;;;-1.51;67.61;102691.63;5035964;28;20030;-88
2022/03/07 01:50:18;;;;;;;6.50;3.50;;;;;;;-1.52;67.04;102693.28;5035628;28;20116;-87
2022/03/07 01:52:47;;;;;;;5.53;3.38;;;;;;;-1.50;67.32;102693.38;5035509;28;20420;-88
2022/03/07 01:55:14;;;;;;;5.35;3.42;;;;;;;-1.51;67.09;102699.25;5035774;28;20037;-87
2022/03/07 01:57:49;;;;;;;6.93;3.78;;;;;;;-1.53;67.46;102694.06;5046838;28;20033;-89
2022/03/07 02:00:18;;;;;;;4.97;3.30;;;;;;;-1.55;67.09;102693.09;5055075;28;20533;-88
2022/03/07 02:02:44;;;;;;;5.80;3.60;;;;;;;-1.57;69.73;102687.91;5055879;28;20059;-88
2022/03/07 02:05:10;;;;;;;5.55;3.65;;;;;;;-1.60;67.80;102685.16;5055257;28;20033;-88
2022/03/07 02:07:37;;;;;;;6.53;3.50;;;;;;;-1.65;68.72;102681.44;5055315;28;20033;-88
2022/03/07 02:10:04;;;;;;;4.75;3.20;;;;;;;-1.64;67.86;102692.50;5059973;28;20064;-87
2022/03/07 02:12:30;;;;;;;5.90;3.58;;;;;;;-1.66;67.63;102681.31;5049486;28;20022;-88
2022/03/07 02:14:56;;;;;;;5.22;3.58;;;;;;;-1.66;67.50;102682.22;5035092;28;20044;-88
2022/03/07 02:17:21;;;;;;;6.40;3.60;;;;;;;-1.66;68.49;102681.31;5035188;28;20036;-88
2022/03/07 02:19:46;;;;;;;11.27;5.18;;;;;;;-1.76;72.38;102678.19;5034953;28;20026;-88
2022/03/07 02:22:15;;;;;;;10.63;5.40;;;;;;;-1.76;69.76;102680.75;5035371;28;20040;-88
2022/03/07 02:24:44;;;;;;;7.30;4.40;;;;;;;-1.77;69.38;102675.56;5035018;28;20029;-87
2022/03/07 02:27:10;;;;;;;6.40;3.88;;;;;;;-1.80;69.21;102675.34;5034816;28;20065;-88
2022/03/07 02:29:38;;;;;;;10.63;4.88;;;;;;;-1.84;72.31;102673.38;5035237;28;20836;-87
2022/03/07 02:32:06;;;;;;;8.32;4.57;;;;;;;-1.88;69.64;102672.31;5036595;28;20040;-88
2022/03/07 02:34:31;;;;;;;6.95;4.03;;;;;;;-1.90;69.82;102668.75;5034734;28;20035;-88
2022/03/07 02:36:57;;;;;;;8.35;4.57;;;;;;;-1.92;70.90;102665.25;5036631;28;20029;-90
2022/03/07 02:39:25;;;;;;;6.13;3.95;;;;;;;-1.91;69.07;102670.44;5034629;28;20033;-88
2022/03/07 02:41:50;;;;;;;11.48;5.78;;;;;;;-1.96;73.33;102668.38;5054216;28;20083;-87
2022/03/07 02:44:16;;;;;;;10.57;5.40;;;;;;;-1.95;71.96;102676.09;5054103;28;20037;-88
2022/03/07 02:46:42;;;;;;;9.43;4.95;;;;;;;-1.96;71.10;102679.44;5057514;28;20021;-88
2022/03/07 02:49:08;;;;;;;9.23;4.87;;;;;;;-1.96;70.36;102673.47;5067002;28;20049;-87
2022/03/07 02:51:34;;;;;;;7.40;4.50;;;;;;;-1.97;70.18;102677.66;5054676;28;20291;-88
2022/03/07 02:54:00;;;;;;;9.73;5.30;;;;;;;-2.00;72.30;102671.50;5054412;28;20469;-88
2022/03/07 02:56:31;;;;;;;12.25;6.45;;;;;;;-2.00;74.92;102679.13;5052594;28;20025;-88
2022/03/07 02:58:57;;;;;;;11.32;5.70;;;;;;;-2.00;72.55;102676.59;5055320;28;20032;-87
2022/03/07 03:01:22;;;;;;;9.30;5.00;;;;;;;-2.02;72.13;102669.72;5054062;28;20025;-88
2022/03/07 03:03:47;;;;;;;8.60;4.97;;;;;;;-2.05;71.33;102669.56;5054731;28;20481;-88
2022/03/07 03:06:13;;;;;;;8.77;4.70;;;;;;;-2.07;73.00;102666.00;5054622;28;20096;-88
2022/03/07 03:08:38;;;;;;;9.43;5.38;;;;;;;-2.07;73.82;102667.66;5053805;28;20033;-88
2022/03/07 03:11:03;;;;;;;9.55;5.25;;;;;;;-2.11;74.01;102664.03;5054194;28;20051;-87
2022/03/07 03:13:29;;;;;;;8.10;4.70;;;;;;;-2.12;71.92;102659.72;5052436;28;20374;-87
2022/03/07 03:15:58;;;;;;;7.95;4.53;;;;;;;-2.10;70.45;102663.25;5053900;28;20033;-88
2022/03/07 03:18:23;;;;;;;8.25;4.35;;;;;;;-2.10;71.06;102665.81;5054051;28;20056;-87
2022/03/07 03:20:51;;;;;;;7.47;4.38;;;;;;;-2.11;70.63;102671.66;5040997;28;20363;-88
2022/03/07 03:23:20;;;;;;;6.47;4.10;;;;;;;-2.13;71.29;102675.78;5033207;28;20033;-88
2022/03/07 03:25:46;;;;;;;10.43;4.93;;;;;;;-2.15;72.65;102671.38;5033976;28;20029;-87
2022/03/07 03:28:12;;;;;;;10.88;5.72;;;;;;;-2.19;74.46;102666.06;5033657;28;20017;-88
2022/03/07 03:30:37;;;;;;;10.07;5.32;;;;;;;-2.19;71.93;102668.63;5033430;28;20105;-88
2022/03/07 03:33:03;;;;;;;9.15;5.05;;;;;;;-2.19;71.74;102670.28;5034338;28;20059;-88
2022/03/07 03:35:29;;;;;;;7.43;4.80;;;;;;;-2.21;73.09;102676.94;5033758;28;20527;-87
2022/03/07 03:37:55;;;;;;;7.63;4.40;;;;;;;-2.22;72.81;102670.97;5039104;28;20017;-87
2022/03/07 03:40:20;;;;;;;9.63;4.90;;;;;;;-2.24;73.85;102669.09;5054704;28;20017;-87
2022/03/07 03:42:49;;;;;;;7.63;4.20;;;;;;;-2.23;72.21;102669.22;5054770;28;20021;-88
2022/03/07 03:45:14;;;;;;;8.60;4.60;;;;;;;-2.19;71.15;102675.38;5059561;28;20396;-88
2022/03/07 03:47:42;;;;;;;7.47;4.20;;;;;;;-2.21;73.04;102674.38;5053383;28;20045;-88
2022/03/07 03:50:10;;;;;;;8.48;4.90;;;;;;;-2.24;73.91;102682.69;5053340;28;20171;-87
2022/03/07 03:52:36;;;;;;;12.68;6.65;;;;;;;-2.30;77.54;102676.31;5053217;28;20091;-88
2022/03/07 03:55:02;;;;;;;17.60;9.40;;;;;;;-2.34;77.09;102675.25;5052573;28;20025;-88
2022/03/07 03:57:28;;;;;;;17.98;9.60;;;;;;;-2.36;77.30;102681.88;5052965;28;20741;-88
2022/03/07 03:59:53;;;;;;;15.50;7.93;;;;;;;-2.34;75.79;102686.28;5053660;28;20028;-88
2022/03/07 04:02:18;;;;;;;14.40;7.60;;;;;;;-2.35;76.11;102683.66;5053264;28;20036;-87
2022/03/07 04:04:44;;;;;;;14.85;7.40;;;;;;;-2.37;75.84;102685.19;5045715;28;20033;-88
2022/03/07 04:07:09;;;;;;;15.18;6.55;;;;;;;-2.38;75.58;102686.88;5032957;28;20029;-87
2022/03/07 04:09:34;;;;;;;19.08;9.40;;;;;;;-2.46;78.70;102685.44;5033025;28;20294;-88
2022/03/07 04:12:00;;;;;;;18.25;9.23;;;;;;;-2.47;78.45;102681.13;5032901;28;20033;-87
2022/03/07 04:14:25;;;;;;;17.75;9.30;;;;;;;-2.45;77.94;102683.81;5032997;28;20083;-87
2022/03/07 04:16:50;;;;;;;18.95;9.77;;;;;;;-2.50;79.31;102684.38;5033242;28;20022;-88
2022/03/07 04:19:16;;;;;;;17.23;8.80;;;;;;;-2.46;76.93;102680.34;5033225;28;20036;-87
2022/03/07 04:21:42;;;;;;;16.55;8.43;;;;;;;-2.47;76.55;102682.81;5033226;28;20033;-88
2022/03/07 04:24:12;;;;;;;16.83;8.17;;;;;;;-2.52;78.21;102669.78;5037935;28;20017;-88
2022/03/07 04:26:38;;;;;;;17.95;8.77;;;;;;;-2.52;77.40;102679.97;5052624;28;20271;-88
2022/03/07 04:29:07;;;;;;;18.20;8.25;;;;;;;-2.52;78.07;102674.88;5053559;28;20029;-88
2022/03/07 04:31:37;;;;;;;17.23;8.80;;;;;;;-2.56;79.30;102683.06;5053292;28;20017;-88
2022/03/07 04:34:03;;;;;;;18.33;9.70;;;;;;;-2.57;79.42;102683.84;5052496;28;20055;-88
2022/03/07 04:36:29;;;;;;;18.70;9.48;;;;;;;-2.56;78.61;102678.88;5054668;28;20025;-86
2022/03/07 04:38:54;;;;;;;18.15;9.00;;;;;;;-2.56;79.04;102681.41;5053221;28;20044;-88
2022/03/07 04:41:19;;;;;;;19.27;9.93;;;;;;;-2.59;79.82;102677.78;5052489;28;20025;-88
2022/03/07 04:43:45;;;;;;;19.70;10.00;;;;;;;-2.58;79.13;102674.44;5054821;28;20021;-87
2022/03/07 04:46:10;;;;;;;19.85;10.45;;;;;;;-2.62;79.69;102677.56;5050453;28;20109;-88
2022/03/07 04:48:35;;;;;;;21.88;11.02;;;;;;;-2.64;80.11;102675.81;5032356;28;20030;-88
2022/03/07 04:51:01;;;;;;;19.38;10.27;;;;;;;-2.63;79.99;102684.31;5032979;28;20033;-88
2022/03/07 04:53:26;;;;;;;19.23;9.75;;;;;;;-2.64;78.51;102678.34;5032736;28;20037;-87
2022/03/07 04:55:52;;;;;;;17.98;9.90;;;;;;;-2.67;79.17;102670.50;5033543;28;20025;-88
2022/03/07 04:58:17;;;;;;;20.80;10.70;;;;;;;-2.65;80.03;102679.13;5048612;28;20033;-87
2022/03/07 05:00:42;;;;;;;19.52;10.85;;;;;;;-2.68;80.30;102678.03;5052414;28;20029;-88
2022/03/07 05:03:08;;;;;;;17.55;9.80;;;;;;;-2.65;79.24;102686.75;5053081;28;20033;-88
2022/03/07 05:05:33;;;;;;;19.65;10.10;;;;;;;-2.68;80.17;102683.13;5052705;28;20025;-88
2022/03/07 05:07:58;;;;;;;20.58;11.30;;;;;;;-2.70;80.64;102685.53;5055347;28;20078;-87
2022/03/07 05:10:24;;;;;;;21.20;11.73;;;;;;;-2.75;80.84;102671.66;5055756;28;20021;-85
2022/03/07 05:12:49;;;;;;;20.63;11.57;;;;;;;-2.71;80.73;102677.81;5056190;28;20291;-89
2022/03/07 05:15:15;;;;;;;20.15;11.60;;;;;;;-2.70;80.64;102671.97;5056881;28;20380;-90
2022/03/07 05:17:44;;;;;;;19.95;9.98;;;;;;;-2.71;79.46;102663.47;5037955;28;20026;-90
2022/03/07 05:20:11;;;;;;;20.05;10.82;;;;;;;-2.75;81.05;102666.56;5036381;28;20025;-83
2022/03/07 05:22:38;;;;;;;19.98;10.75;;;;;;;-2.73;79.77;102675.19;5035012;28;20029;-86
2022/03/07 05:25:05;;;;;;;20.30;10.95;;;;;;;-2.77;80.85;102672.31;5036082;28;20053;-88
2022/03/07 05:27:30;;;;;;;21.30;10.57;;;;;;;-2.73;80.70;102671.75;5035770;28;20033;-88
2022/03/07 05:29:56;;;;;;;21.15;12.20;;;;;;;-2.78;81.51;102679.06;5035684;28;20021;-88
2022/03/07 05:32:21;;;;;;;21.38;11.30;;;;;;;-2.78;81.17;102673.97;5036080;28;20385;-87
2022/03/07 05:34:46;;;;;;;20.42;11.75;;;;;;;-2.78;81.00;102679.06;5036157;28;20072;-87
2022/03/07 05:37:11;;;;;;;21.60;11.55;;;;;;;-2.80;80.90;102678.06;5035605;28;20034;-88
2022/03/07 05:39:36;;;;;;;24.02;12.70;;;;;;;-2.81;81.56;102679.72;5051530;28;20111;-88
2022/03/07 05:42:03;;;;;;;22.23;12.45;;;;;;;-2.83;81.37;102670.25;5055605;28;20039;-87
2022/03/07 05:44:28;;;;;;;23.42;11.93;;;;;;;-2.81;81.15;102678.81;5054887;28;20037;-88
2022/03/07 05:46:54;;;;;;;20.65;11.25;;;;;;;-2.78;80.98;102681.59;5055591;28;20029;-88
2022/03/07 05:49:19;;;;;;;19.65;10.57;;;;;;;-2.79;80.37;102679.81;5055718;28;20037;-87
2022/03/07 05:51:46;;;;;;;19.25;10.27;;;;;;;-2.77;79.84;102677.41;5056268;28;20025;-86
2022/03/07 05:54:11;;;;;;;19.90;11.07;;;;;;;-2.82;81.61;102688.13;5055435;28;20024;-88
2022/03/07 05:56:36;;;;;;;22.80;12.82;;;;;;;-2.81;81.66;102686.44;5055521;28;20031;-90
2022/03/07 05:59:02;;;;;;;21.38;12.63;;;;;;;-2.84;81.57;102681.19;5040942;28;20034;-86
2022/03/07 06:01:27;;;;;;;21.35;11.80;;;;;;;-2.82;81.70;102687.25;5034220;28;20080;-87
2022/03/07 06:03:52;;;;;;;21.67;12.38;;;;;;;-2.83;80.62;102696.53;5035086;28;20533;-86
2022/03/07 06:06:17;;;;;;;20.85;11.25;;;;;;;-2.80;81.26;102693.31;5035176;28;20030;-86
2022/03/07 06:08:43;;;;;;;20.17;10.63;;;;;;;-2.81;80.62;102696.63;5037959;28;20035;-87
2022/03/07 06:11:08;;;;;;;20.05;10.10;;;;;;;-2.80;80.33;102700.94;5042256;28;20038;-86
2022/03/07 06:13:37;;;;;;;18.60;9.30;;;;;;;-2.81;80.56;102707.69;5053322;28;20022;-87
2022/03/07 06:16:02;;;;;;;18.88;9.45;;;;;;;-2.79;80.65;102710.31;5036916;28;20075;-86
2022/03/07 06:18:27;;;;;;;19.38;9.10;;;;;;;-2.80;79.74;102708.56;5033966;28;20120;-87
2022/03/07 06:20:53;;;;;;;19.52;9.70;;;;;;;-2.80;80.15;102714.53;5035117;28;20036;-87
2022/03/07 06:23:25;;;;;;;17.92;9.02;;;;;;;-2.81;80.77;102712.75;5034645;28;20033;-86
2022/03/07 06:25:50;;;;;;;21.88;12.05;;;;;;;-2.81;81.28;102722.03;5034032;28;20497;-87
2022/03/07 06:28:16;;;;;;;20.40;11.20;;;;;;;-2.79;79.99;102720.50;5034697;28;20033;-86
2022/03/07 06:30:44;;;;;;;22.08;12.13;;;;;;;-2.80;80.66;102713.63;5034796;28;20032;-86
2022/03/07 06:33:09;;;;;;;19.83;10.48;;;;;;;-2.81;79.74;102712.75;5034312;28;20367;-87
2022/03/07 06:35:35;;;;;;;21.02;11.65;;;;;;;-2.77;81.20;102723.16;5034513;28;20043;-87
2022/03/07 06:38:00;;;;;;;21.02;11.50;;;;;;;-2.77;81.25;102723.16;5034643;28;20025;-87
2022/03/07 06:40:27;;;;;;;22.63;12.60;;;;;;;-2.72;80.42;102727.78;5034166;28;20029;-87
2022/03/07 06:42:52;;;;;;;22.30;11.82;;;;;;;-2.43;80.60;102725.47;5036159;28;20492;-87
2022/03/07 06:45:18;;;;;;;20.42;11.05;;;;;;;-2.06;79.79;102707.59;5034367;28;20021;-85
2022/03/07 06:47:44;;;;;;;23.45;13.10;;;;;;;-1.59;77.65;102725.13;5034951;28;20503;-85
2022/03/07 06:50:11;;;;;;;24.85;14.07;;;;;;;-1.59;76.87;102727.66;5042648;28;20072;-85
2022/03/07 06:52:36;;;;;;;23.73;12.50;;;;;;;-1.81;77.12;102725.41;5033604;28;20030;-85
2022/03/07 06:55:02;;;;;;;21.42;12.32;;;;;;;-1.97;77.44;102723.47;5033435;28;20029;-85
2022/03/07 06:57:30;;;;;;;24.27;13.63;;;;;;;-2.11;78.28;102729.31;5033762;28;20037;-86
2022/03/07 06:59:55;;;;;;;22.80;12.63;;;;;;;-1.71;77.93;102735.41;5034034;28;20021;-86
2022/03/07 07:02:21;;;;;;;23.25;13.18;;;;;;;-1.64;76.93;102718.88;5036385;28;20382;-87
2022/03/07 07:04:47;;;;;;;22.80;12.50;;;;;;;-1.43;77.03;102726.97;5034111;28;20390;-86
2022/03/07 07:07:12;;;;;;;24.15;13.45;;;;;;;-1.05;75.93;102731.88;5033220;28;20022;-87
2022/03/07 07:09:38;;;;;;;23.33;12.55;;;;;;;-0.73;74.75;102730.44;5033748;28;20013;-87
2022/03/07 07:12:04;;;;;;;20.35;11.40;;;;;;;-0.34;74.43;102729.44;5034587;28;20046;-88
2022/03/07 07:14:29;;;;;;;19.67;10.68;;;;;;;-0.11;73.29;102726.50;5034067;28;20029;-88
2022/03/07 07:16:55;;;;;;;20.38;10.88;;;;;;;-0.30;72.06;102727.09;5045368;28;20025;-94
2022/03/07 07:19:20;;;;;;;24.05;12.57;;;;;;;-0.66;73.17;102730.94;5055292;28;20021;-95
2022/03/07 07:21:46;;;;;;;20.85;11.00;;;;;;;-0.84;73.87;102723.03;5053111;28;20103;-83
2022/03/07 07:24:11;;;;;;;20.90;11.43;;;;;;;-0.98;73.98;102728.94;5053401;28;20031;-86
2022/03/07 07:26:36;;;;;;;19.85;10.57;;;;;;;-1.05;74.17;102731.88;5053465;28;20473;-86
2022/03/07 07:29:02;;;;;;;19.25;10.38;;;;;;;-1.15;74.64;102728.75;5052803;28;20434;-86
2022/03/07 07:31:27;;;;;;;18.50;9.80;;;;;;;-1.18;74.74;102726.00;5053472;28;20025;-86
2022/03/07 07:33:53;;;;;;;16.85;8.70;;;;;;;-1.21;74.95;102723.25;5053694;28;20083;-86
2022/03/07 07:36:18;;;;;;;17.33;8.60;;;;;;;-1.23;74.69;102722.28;5051501;28;20496;-86
2022/03/07 07:38:43;;;;;;;17.70;9.35;;;;;;;-1.23;74.81;102726.50;5052994;28;20025;-87
2022/03/07 07:41:10;;;;;;;16.98;8.38;;;;;;;-1.21;75.00;102733.44;5053500;28;20065;-87
2022/03/07 07:43:35;;;;;;;16.60;8.55;;;;;;;-1.16;75.38;102733.75;5052325;28;20033;-86
2022/03/07 07:46:01;;;;;;;14.90;7.18;;;;;;;-1.12;75.56;102739.13;5051743;28;20033;-86
2022/03/07 07:48:26;;;;;;;19.90;9.90;;;;;;;-1.15;75.59;102728.75;5053193;28;20174;-87
2022/03/07 07:50:51;;;;;;;20.73;11.40;;;;;;;-1.14;75.46;102738.16;5050938;28;20191;-87
2022/03/07 07:53:17;;;;;;;22.73;13.50;;;;;;;-1.14;75.15;102737.28;5033032;28;20466;-85
2022/03/07 07:55:42;;;;;;;22.27;12.93;;;;;;;-1.08;75.06;102747.88;5034430;28;20114;-85
2022/03/07 07:58:11;;;;;;;22.05;12.45;;;;;;;-1.03;75.72;102745.63;5032848;28;20500;-86
2022/03/07 08:00:36;;;;;;;21.60;12.25;;;;;;;-0.99;75.51;102745.00;5033072;28;20037;-86
2022/03/07 08:03:01;;;;;;;22.77;12.98;;;;;;;-0.93;75.16;102742.84;5033397;28;20030;-87
2022/03/07 08:05:27;;;;;;;21.35;12.07;;;;;;;-0.81;74.82;102737.63;5029172;28;20477;-86
2022/03/07 08:07:52;;;;;;;22.67;13.50;;;;;;;-0.75;74.53;102747.31;5032686;28;20029;-86
2022/03/07 08:10:18;;;;;;;23.38;14.57;;;;;;;-0.74;74.22;102741.44;5032599;28;20022;-86
2022/03/07 08:12:44;;;;;;;24.85;15.52;;;;;;;-0.69;73.92;102745.16;5032024;28;20508;-86
2022/03/07 08:15:16;;;;;;;23.95;14.75;;;;;;;-0.64;73.94;102747.22;5033700;28;20041;-86
2022/03/07 08:17:46;;;;;;;23.15;13.90;;;;;;;-0.62;74.18;102737.09;5032514;28;20042;-86
2022/03/07 08:20:27;;;;;;;22.73;13.73;;;;;;;-0.54;73.19;102740.13;5033082;28;20462;-86
2022/03/07 08:22:53;;;;;;;22.33;12.93;;;;;;;-0.42;73.33;102742.53;5034079;28;20425;-87
2022/03/07 08:25:20;;;;;;;23.42;13.52;;;;;;;-0.30;72.69;102743.25;5032262;28;20077;-86
2022/03/07 08:27:46;;;;;;;21.75;13.50;;;;;;;-0.16;72.57;102738.97;5032909;28;20535;-87
2022/03/07 08:30:14;;;;;;;21.80;12.30;;;;;;;-0.04;72.48;102738.84;5033290;28;20026;-86
2022/03/07 08:32:50;;;;;;;23.80;14.55;;;;;;;0.03;70.69;102747.75;5031868;28;20057;-87
2022/03/07 08:35:16;;;;;;;21.80;13.02;;;;;;;0.10;71.80;102745.66;5048282;28;20037;-86
2022/03/07 08:37:44;;;;;;;21.35;12.98;;;;;;;0.18;70.91;102740.09;5060203;28;20532;-87
2022/03/07 08:40:10;;;;;;;21.73;12.70;;;;;;;0.25;70.67;102747.31;5062812;28;20424;-87
2022/03/07 08:42:36;;;;;;;22.10;12.65;;;;;;;0.33;69.14;102745.19;5053417;28;20029;-87
2022/03/07 08:45:01;;;;;;;20.48;11.75;;;;;;;0.47;70.85;102751.97;5061505;28;20033;-87
2022/03/07 08:47:27;;;;;;;20.67;11.25;;;;;;;0.61;69.79;102747.66;5054197;28;20036;-87
2022/03/07 08:49:56;;;;;;;19.70;10.90;;;;;;;0.76;68.34;102751.06;5057201;28;20045;-87
2022/03/07 08:52:21;;;;;;;19.15;10.68;;;;;;;0.92;67.44;102744.25;5057146;28;20032;-87
2022/03/07 08:54:47;;;;;;;19.52;10.63;;;;;;;1.11;67.76;102746.13;5056717;28;20025;-87
2022/03/07 08:57:13;;;;;;;18.98;10.70;;;;;;;1.15;67.67;102747.19;5058162;28;20021;-87
2022/03/07 08:59:39;;;;;;;20.70;11.90;;;;;;;1.29;66.52;102741.13;5058122;28;20013;-87
2022/03/07 09:02:05;;;;;;;19.92;11.15;;;;;;;1.40;66.63;102731.50;5056165;28;20036;-87
2022/03/07 09:04:30;;;;;;;21.17;11.60;;;;;;;1.52;66.28;102736.34;5055903;28;20029;-87
2022/03/07 09:06:56;;;;;;;22.45;11.95;;;;;;;1.64;64.74;102729.31;5055380;28;20583;-86
2022/03/07 09:09:21;;;;;;;22.88;13.38;;;;;;;1.74;62.83;102732.34;5036616;28;20108;-87
2022/03/07 09:11:47;;;;;;;21.33;11.82;;;;;;;1.72;64.41;102732.28;5036260;28;20037;-87
2022/03/07 09:14:13;;;;;;;22.45;12.07;;;;;;;1.81;64.64;102724.19;5035434;28;20099;-86
2022/03/07 09:16:39;;;;;;;22.10;12.60;;;;;;;2.02;64.44;102728.66;5036644;28;20025;-87
2022/03/07 09:19:04;;;;;;;20.73;11.70;;;;;;;2.04;64.02;102732.16;5040605;28;20021;-87
2022/03/07 09:21:29;;;;;;;19.33;10.35;;;;;;;2.14;63.38;102731.81;5046205;28;20025;-86
2022/03/07 09:23:55;;;;;;;18.73;9.77;;;;;;;2.27;61.03;102733.31;5056154;28;20055;-87
2022/03/07 09:26:20;;;;;;;18.33;9.77;;;;;;;2.33;59.16;102728.47;5056251;28;20025;-87
2022/03/07 09:28:46;;;;;;;17.50;9.15;;;;;;;2.38;60.44;102726.13;5055100;28;20083;-87
2022/03/07 09:31:11;;;;;;;17.88;9.38;;;;;;;2.58;60.21;102719.41;5055935;28;20021;-87
2022/03/07 09:33:38;;;;;;;17.85;9.07;;;;;;;2.67;59.78;102727.53;5055609;28;20031;-87
2022/03/07 09:36:03;;;;;;;17.08;9.18;;;;;;;2.80;59.43;102718.78;5054524;28;20028;-88
2022/03/07 09:38:29;;;;;;;16.27;9.23;;;;;;;2.94;58.84;102720.28;5055766;28;20021;-87
2022/03/07 09:40:56;;;;;;;17.52;8.73;;;;;;;2.94;58.09;102714.28;5055613;28;20373;-86
2022/03/07 09:43:21;;;;;;;15.68;8.55;;;;;;;3.09;57.52;102717.56;5054838;28;20029;-87
2022/03/07 09:45:49;;;;;;;17.17;8.88;;;;;;;3.09;56.34;102712.44;5055292;28;20021;-87
2022/03/07 09:48:14;;;;;;;16.00;8.43;;;;;;;3.20;55.37;102715.47;5055334;28;20025;-87
2022/03/07 09:50:43;;;;;;;14.27;7.78;;;;;;;3.20;55.30;102706.91;5054267;28;20041;-87
2022/03/07 09:53:09;;;;;;;15.27;8.45;;;;;;;3.08;54.06;102714.91;5054469;28;20029;-87
2022/03/07 09:55:51;;;;;;;15.98;8.52;;;;;;;3.14;53.82;102714.31;5055164;28;20029;-88
2022/03/07 09:58:17;;;;;;;15.35;7.95;;;;;;;3.03;54.02;102708.69;5054971;28;20021;-87
2022/03/07 10:00:43;;;;;;;16.13;8.65;;;;;;;3.07;54.85;102701.22;5048167;28;20037;-88
2022/03/07 10:03:33;;;;;;;13.95;7.38;;;;;;;3.24;53.13;102703.66;5034720;28;20112;-88
2022/03/07 10:06:17;;;;;;;15.68;7.75;;;;;;;3.16;53.55;102707.56;5042560;28;20037;-88
2022/03/07 10:09:01;;;;;;;14.68;7.18;;;;;;;3.09;53.04;102688.44;5054915;28;20037;-88
2022/03/07 10:11:28;;;;;;;14.85;7.25;;;;;;;3.25;53.44;102692.56;5054757;28;20056;-87
2022/03/07 10:14:02;;;;;;;13.60;7.40;;;;;;;3.51;54.76;102686.03;5055363;28;20017;-87
2022/03/07 10:17:15;;;;;;;13.25;7.20;;;;;;;3.66;54.40;102687.50;5055290;28;20424;-86
2022/03/07 10:19:44;;;;;;;13.35;7.30;;;;;;;3.74;51.45;102693.84;4974168;28;20026;-87
2022/03/07 10:22:13;;;;;;;15.90;7.30;;;;;;;3.73;51.62;102688.66;4974316;28;20054;-92
2022/03/07 10:24:39;;;;;;;14.88;7.00;;;;;;;3.83;51.28;102689.09;5018647;28;20057;-95
2022/03/07 10:27:10;;;;;;;11.30;6.65;;;;;;;3.84;52.08;102688.28;5057667;28;20430;-93
2022/03/07 10:29:47;;;;;;;13.27;6.70;;;;;;;3.97;50.97;102687.13;5056639;28;20044;-92
2022/03/07 10:32:19;;;;;;;12.88;6.57;;;;;;;4.14;52.30;102689.50;5046824;28;20021;-85
2022/03/07 10:34:47;;;;;;;13.65;6.35;;;;;;;4.32;53.12;102677.41;5040841;28;20063;-82
2022/03/07 10:37:15;;;;;;;10.90;6.03;;;;;;;4.54;52.41;102687.66;5034187;28;20029;-83
2022/03/07 10:39:50;;;;;;;7.88;5.32;;;;;;;4.72;49.73;102679.78;5033657;28;20041;-82
2022/03/07 10:42:17;;;;;;;13.00;6.28;;;;;;;4.73;48.66;102674.69;5034142;28;20025;-83
2022/03/07 10:44:43;;;;;;;10.68;6.28;;;;;;;4.68;49.50;102668.50;5034306;28;20029;-88
2022/03/07 10:47:14;;;;;;;11.43;5.97;;;;;;;4.75;50.97;102659.31;5034078;28;20036;-87
2022/03/07 10:49:58;;;;;;;10.07;5.50;;;;;;;4.99;51.34;102663.66;5033691;28;20065;-87
2022/03/07 10:52:24;;;;;;;11.73;5.78;;;;;;;5.10;50.30;102640.03;5032630;28;20366;-86
2022/03/07 10:54:51;;;;;;;11.90;5.93;;;;;;;5.04;47.68;102647.56;5033659;28;20060;-87
2022/03/07 10:57:19;;;;;;;12.60;6.15;;;;;;;5.08;50.28;102636.53;5033083;28;20028;-87
2022/03/07 10:59:45;;;;;;;11.15;5.85;;;;;;;5.21;49.24;102631.81;5047933;28;20048;-87
2022/03/07 11:02:14;;;;;;;10.77;5.45;;;;;;;5.31;49.21;102639.06;5053753;28;20369;-87
2022/03/07 11:04:44;;;;;;;12.07;5.95;;;;;;;5.15;48.19;102623.91;5049440;28;20052;-87
2022/03/07 11:07:13;;;;;;;11.18;5.93;;;;;;;5.16;47.92;102625.66;5036996;28;20022;-88
2022/03/07 11:09:39;;;;;;;12.27;6.07;;;;;;;4.78;48.06;102633.72;5037405;28;20105;-88
2022/03/07 11:12:09;;;;;;;11.10;5.80;;;;;;;4.86;49.64;102629.72;5042717;28;20041;-85
2022/03/07 11:14:38;;;;;;;12.05;5.90;;;;;;;4.73;48.63;102618.09;5053332;28;20331;-87
2022/03/07 11:17:07;;;;;;;12.77;6.20;;;;;;;4.74;49.06;102621.56;5054586;28;20040;-88